createdAt,value
2022-09-22T00:04:18.797Z,101006.92
2022-09-22T00:19:25.272Z,101005.41
2022-09-22T00:34:28.718Z,101001.91
2022-09-22T00:50:00.851Z,101000.95
2022-09-22T01:05:05.377Z,100999.10
2022-09-22T01:20:34.170Z,101002.05
2022-09-22T01:36:02.961Z,101002.41
2022-09-22T01:51:15.850Z,101010.02
2022-09-22T02:06:25.583Z,101004.14
2022-09-22T02:21:29.141Z,101011.59
2022-09-22T02:36:46.440Z,101010.16
2022-09-22T02:51:50.734Z,101012.25
2022-09-22T03:06:53.811Z,101015.52
2022-09-22T03:21:57.147Z,101019.98
2022-09-22T03:37:00.182Z,101009.49
2022-09-22T03:52:03.196Z,101007.45
2022-09-22T04:07:07.386Z,101008.60
2022-09-22T04:22:11.013Z,101015.33
2022-09-22T04:37:14.065Z,101018.46
2022-09-22T04:52:17.038Z,101021.58
2022-09-22T05:07:19.978Z,101019.59
2022-09-22T05:22:23.945Z,101029.33
2022-09-22T05:37:27.176Z,101029.17
2022-09-22T05:52:30.180Z,101033.66
2022-09-22T06:07:33.167Z,101048.01
2022-09-22T06:22:37.565Z,101050.19
2022-09-22T06:37:40.962Z,101053.31
2022-09-22T06:52:44.421Z,101053.33
2022-09-22T07:07:47.465Z,101062.59
2022-09-22T07:22:51.189Z,101068.64
2022-09-22T07:38:03.715Z,101076.31
2022-09-22T07:53:07.318Z,101076.60
2022-09-22T08:08:10.316Z,101079.20
2022-09-22T08:23:14.518Z,101074.38
2022-09-22T08:38:18.361Z,101069.50
2022-09-22T08:53:23.804Z,101076.27
2022-09-22T09:08:41.755Z,101074.91
2022-09-22T09:39:15.886Z,101060.81
2022-09-22T09:54:20.674Z,101061.23
2022-09-22T10:09:29.741Z,101058.54
2022-09-22T10:24:34.949Z,101059.39
2022-09-22T10:39:59.246Z,101051.97
2022-09-22T10:55:37.647Z,101050.88
2022-09-22T11:11:16.215Z,101035.79
2022-09-22T11:26:29.274Z,101030.52
2022-09-22T11:41:49.420Z,101017.50
2022-09-22T11:56:58.054Z,101014.75
2022-09-22T12:12:03.363Z,101020.89
2022-09-22T12:27:21.740Z,101017.15
2022-09-22T12:42:37.978Z,101010.73
2022-09-22T12:57:49.038Z,101000.81
2022-09-22T13:13:21.494Z,101001.23
2022-09-22T13:28:26.475Z,100989.40
2022-09-22T13:43:35.724Z,100991.05
2022-09-22T13:58:42.477Z,100989.77
2022-09-22T14:13:56.909Z,100979.56
2022-09-22T14:29:15.695Z,100961.64
2022-09-22T14:44:42.617Z,100948.00
2022-09-22T15:00:12.909Z,100954.79
2022-09-22T15:15:32.794Z,100963.41
2022-09-22T15:30:36.604Z,100967.63
2022-09-22T15:45:48.402Z,100971.06
2022-09-22T16:00:53.565Z,100967.70
2022-09-22T16:15:57.794Z,100967.82
2022-09-22T16:31:05.990Z,100978.02
2022-09-22T16:46:28.817Z,100977.33
2022-09-22T17:01:38.111Z,100978.92
2022-09-22T17:16:44.397Z,100982.41
2022-09-22T17:31:50.042Z,100985.23
2022-09-22T17:47:12.321Z,100986.34
2022-09-22T18:02:18.272Z,100995.85
2022-09-22T18:17:25.715Z,100999.15
2022-09-22T18:32:29.546Z,101006.73
2022-09-22T18:47:41.260Z,101013.75
2022-09-22T19:02:46.702Z,101019.20
2022-09-22T19:17:51.202Z,101019.20
2022-09-22T19:32:54.903Z,101018.35
2022-09-22T19:47:59.222Z,101027.36
2022-09-22T20:03:03.355Z,101027.70
2022-09-22T20:18:06.788Z,101020.55
2022-09-22T20:33:22.027Z,101008.67
2022-09-22T20:48:25.770Z,101016.21
2022-09-22T21:03:29.683Z,101010.74
2022-09-22T21:18:35.459Z,101002.73
2022-09-22T21:33:38.684Z,100993.98
2022-09-22T21:48:43.492Z,100985.77
2022-09-22T22:03:48.847Z,100990.86
2022-09-22T22:18:52.606Z,100987.96
2022-09-22T22:33:57.143Z,100985.45
2022-09-22T22:49:00.385Z,100975.28
2022-09-22T23:04:09.109Z,100962.40
2022-09-22T23:19:13.914Z,100950.93
2022-09-22T23:34:16.980Z,100941.46
2022-09-22T23:49:20.344Z,100931.71
